Latest Weather Observations for Mount Crawford

IDS60901

Issued at 10:21 am CST Tuesday 18 June 2019 (issued every 10 minutes, with the page automatically refreshed every 10 minutes)

About weather observations | Map of Adelaide area stations | Latest observations for Adelaide area | Other Formats
Station Details ID: 023878 Name: MOUNT CRAWFORD AWS Lat: -34.73 Lon: 138.93 Height: 525.0 m
Data from the previous 72 hours. | See also: Recent months at Mount Crawford
Date/Time
CST
Temp
°C
App
Temp
°C
Dew
Point
°C
Rel
Hum
%
Delta-T
°C
Wind Press
QNH
hPa
Press
MSL
hPa
Rain since
9am
mm
Dir  Spd
km/h
Gust
km/h
Spd
kts
Gust
kts
18/10:00am 7.4 3.1 5.4 87 0.9 WSW 17 24 9 13 1023.3 1023.6 0.0
18/09:30am 6.6 2.6 4.9 89 0.8 WSW 15 24 8 13 1022.9 1023.3 0.0
18/09:00am 6.0 2.0 5.1 94 0.4 SW 15 24 8 13 1022.5 1022.9 4.4
18/08:30am 5.5 2.4 5.5 100 0.0 SW 11 17 6 9 1022.2 1022.6 4.4
18/08:00am 5.1 1.5 5.1 100 0.0 WSW 13 22 7 12 1021.8 1022.1 4.4
18/07:30am 4.9 1.7 4.9 100 0.0 WSW 11 19 6 10 1021.5 1021.8 4.4
18/07:00am 5.5 2.0 5.5 100 0.0 WSW 13 20 7 11 1020.8 1021.2 4.4
18/06:30am 5.1 1.1 5.1 100 0.0 WSW 15 19 8 10 1020.4 1020.7 4.4
18/06:00am 5.2 1.3 5.2 100 0.0 WSW 15 20 8 11 1020.1 1020.4 4.2
18/05:30am 5.5 1.3 5.5 100 0.0 WSW 17 24 9 13 1019.7 1020.0 4.2
18/05:00am 5.7 1.9 5.7 100 0.0 WSW 15 20 8 11 1019.5 1019.8 4.2
18/04:30am 5.6 1.0 5.6 100 0.0 WSW 19 24 10 13 1019.2 1019.5 4.2
18/04:00am 6.0 1.3 6.0 100 0.0 WSW 20 33 11 18 1019.3 1019.6 4.2
18/03:30am 6.1 1.4 6.1 100 0.0 WSW 20 33 11 18 1019.2 1019.5 4.2
18/03:00am 6.2 1.5 6.2 100 0.0 WSW 20 30 11 16 1019.0 1019.4 4.2
18/02:30am 6.6 1.6 6.6 100 0.0 WSW 22 32 12 17 1018.7 1019.0 4.2
18/02:00am 7.2 2.8 7.2 100 0.0 WSW 20 30 11 16 1018.5 1018.8 4.2
18/01:30am 7.5 2.4 7.5 100 0.0 WSW 24 35 13 19 1018.3 1018.6 4.2
18/01:00am 7.3 2.1 7.3 100 0.0 WSW 24 41 13 22 1018.0 1018.3 4.0
18/12:30am 6.9 2.6 6.9 100 0.0 WSW 19 28 10 15 1018.1 1018.4 3.8
18/12:00am 7.3 1.7 7.3 100 0.0 WNW 26 37 14 20 1017.8 1018.1 2.4
 
Date/Time
CST
Temp
°C
App
Temp
°C
Dew
Point
°C
Rel
Hum
%
Delta-T
°C
Wind Press
QNH
hPa
Press
MSL
hPa
Rain since
9am
mm
Dir  Spd
km/h
Gust
km/h
Spd
kts
Gust
kts
17/11:30pm 7.2 0.5 7.2 100 0.0 WNW 32 46 17 25 1017.9 1018.2 1.0
17/11:17pm 7.2 1.2 7.2 100 0.0 WNW 28 46 15 25 1018.0 1018.3 0.6
17/11:00pm 7.5 1.6 7.5 100 0.0 WNW 28 44 15 24 1018.0 1018.3 0.0
17/10:42pm 8.1 2.1 7.2 94 0.4 NW 28 46 15 25 1018.0 1018.3 0.0
17/10:30pm 8.2 3.0 7.1 93 0.5 NW 24 39 13 21 1018.1 1018.4 0.0
17/10:00pm 7.9 3.6 7.1 95 0.4 NW 19 24 10 13 1018.4 1018.7 0.0
17/09:30pm 8.0 3.5 6.9 93 0.5 NW 20 30 11 16 1018.7 1019.0 0.0
17/09:00pm 8.0 3.0 6.6 91 0.7 NW 22 32 12 17 1018.7 1019.0 0.0
17/08:30pm 7.8 3.2 6.7 93 0.5 NW 20 33 11 18 1018.9 1019.3 0.0
17/08:00pm 8.1 3.7 7.2 94 0.4 NW 20 28 11 15 1018.9 1019.3 0.0
17/07:30pm 8.3 3.9 7.4 94 0.4 NNW 20 28 11 15 1019.2 1019.5 0.0
17/06:30pm 8.2 3.9 7.1 93 0.5 NW 19 - 10 - - 1019.5 -
17/06:00pm 8.3 3.9 7.2 93 0.5 NW 20 - 11 - - 1019.4 -
17/05:30pm 8.5 4.2 7.9 96 0.3 NW 20 28 11 15 1019.0 1019.4 0.0
17/05:00pm 8.8 4.7 8.0 95 0.4 NW 19 28 10 15 1019.0 1019.4 0.0
17/04:30pm 9.1 4.9 8.2 94 0.4 NW 20 32 11 17 1019.2 1019.5 0.0
17/04:00pm 9.6 4.6 7.9 89 0.8 NW 24 32 13 17 1019.2 1019.5 0.0
17/03:30pm 10.0 6.1 8.6 91 0.7 WNW 19 35 10 19 1019.0 1019.4 0.0
17/03:00pm 9.6 5.6 9.1 97 0.3 WNW 20 30 11 16 1019.3 1019.6 0.0
17/02:30pm 9.8 4.4 8.2 90 0.8 WNW 26 41 14 22 1019.3 1019.6 0.0
17/02:00pm 9.9 4.8 9.1 95 0.4 NW 26 35 14 19 1019.4 1019.7 0.0
17/01:30pm 10.3 6.5 9.1 92 0.6 WNW 19 33 10 18 1019.5 1019.8 0.0
17/01:00pm 10.4 6.5 9.5 94 0.5 WNW 20 30 11 16 1020.0 1020.3 0.0
17/12:30pm 10.3 6.3 10.3 100 0.0 WNW 22 35 12 19 1020.4 1020.7 0.0
17/12:00pm 9.9 5.4 9.9 100 0.0 NW 24 33 13 18 1020.7 1021.1 0.0
17/11:30am 8.4 4.8 8.4 100 0.0 NW 17 24 9 13 1021.2 1021.5 0.0
17/11:00am 7.9 4.2 7.9 100 0.0 NW 17 24 9 13 1021.6 1021.9 0.0
17/10:30am 7.4 3.2 7.4 100 0.0 NNW 19 28 10 15 1021.8 1022.1 0.0
17/10:00am 8.0 3.5 7.1 94 0.4 NNW 20 30 11 16 1021.7 1022.0 0.0
17/09:30am 8.1 3.7 6.7 91 0.7 NNW 19 28 10 15 1021.7 1022.0 0.0
17/09:00am 7.5 3.0 6.0 90 0.7 NW 19 30 10 16 1021.7 1022.0 0.0
17/08:30am 7.5 2.8 6.0 90 0.7 NNW 20 26 11 14 1021.6 1021.9 0.0
17/08:00am 7.2 3.0 5.5 89 0.8 NW 17 22 9 12 1021.7 1022.0 0.0
17/07:30am 7.4 3.2 5.5 88 0.9 NNW 17 22 9 12 1021.3 1021.6 0.0
17/07:00am 7.6 3.4 5.6 87 0.9 NNW 17 20 9 11 1021.2 1021.5 0.0
17/06:30am 7.8 3.9 5.4 85 1.1 NNW 15 19 8 10 1021.3 1021.6 0.0
17/06:00am 7.6 3.7 5.4 86 1.0 NNW 15 17 8 9 1021.0 1021.4 0.0
17/05:30am 7.9 4.0 5.4 84 1.1 NNW 15 17 8 9 1021.0 1021.4 0.0
17/05:00am 8.0 4.1 5.5 84 1.2 N 15 17 8 9 1021.0 1021.4 0.0
17/04:30am 8.3 4.8 5.6 83 1.3 N 13 17 7 9 1021.3 1021.6 0.0
17/04:00am 8.5 4.6 5.4 81 1.4 NNW 15 17 8 9 1021.5 1021.8 0.0
17/03:30am 8.4 4.5 5.3 81 1.4 NNW 15 19 8 10 1021.6 1021.9 0.0
17/03:00am 8.8 4.9 5.4 79 1.6 NNW 15 17 8 9 1021.7 1022.0 0.0
17/02:30am 8.9 5.4 5.6 80 1.5 N 13 19 7 10 1021.7 1022.0 0.0
17/02:00am 8.8 5.4 5.9 82 1.4 N 13 17 7 9 1021.9 1022.2 0.0
17/01:30am 8.9 5.1 6.0 82 1.4 NNW 15 17 8 9 1022.0 1022.3 0.0
17/01:00am 8.8 4.7 6.1 83 1.3 NNW 17 22 9 12 1022.1 1022.5 0.0
17/12:30am 8.9 4.8 6.3 84 1.2 NNW 17 22 9 12 1022.4 1022.8 0.0
17/12:00am 9.1 5.8 6.2 82 1.4 N 13 15 7 8 1022.6 1023.0 0.0
 
Date/Time
CST
Temp
°C
App
Temp
°C
Dew
Point
°C
Rel
Hum
%
Delta-T
°C
Wind Press
QNH
hPa
Press
MSL
hPa
Rain since
9am
mm
Dir  Spd
km/h
Gust
km/h
Spd
kts
Gust
kts
16/11:30pm 9.3 6.0 6.4 82 1.4 N 13 17 7 9 1022.7 1023.1 0.0
16/11:00pm 9.3 5.6 6.4 82 1.4 N 15 17 8 9 1022.5 1022.9 0.0
16/10:30pm 9.3 6.0 6.4 82 1.4 N 13 17 7 9 1022.6 1023.0 0.0
16/10:00pm 9.5 6.2 6.4 81 1.5 N 13 17 7 9 1022.8 1023.2 0.0
16/09:30pm 9.3 6.4 6.4 82 1.4 NNE 11 13 6 7 1022.8 1023.2 0.0
16/09:00pm 9.4 6.2 6.8 84 1.2 NNE 13 15 7 8 1022.8 1023.2 0.0
16/08:30pm 9.1 5.9 6.7 85 1.1 NE 13 15 7 8 1022.7 1023.1 0.0
16/08:00pm 9.3 6.4 6.7 84 1.3 NE 11 13 6 7 1022.6 1023.0 0.0
16/07:30pm 9.6 6.7 6.7 82 1.4 NNE 11 13 6 7 1022.6 1023.0 0.0
16/07:00pm 9.7 7.3 6.8 82 1.4 NNE 9 9 5 5 1022.2 1022.6 0.0
16/06:30pm 10.1 8.0 6.8 80 1.6 NNE 7 9 4 5 1022.1 1022.5 0.0
16/06:00pm 10.1 8.0 6.8 80 1.6 NNW 7 9 4 5 1021.9 1022.2 0.0
16/05:30pm 10.2 7.8 7.1 81 1.5 NNW 9 11 5 6 1021.7 1022.0 0.0
16/05:00pm 11.0 9.2 7.1 77 1.9 N 6 9 3 5 1021.6 1021.9 0.0
16/04:30pm 11.7 9.9 8.0 78 1.9 N 7 11 4 6 1021.3 1021.6 0.0
16/04:00pm 12.1 9.9 8.0 76 2.1 NW 9 13 5 7 1021.0 1021.4 0.0
16/03:30pm 12.4 9.5 8.3 76 2.1 WNW 13 20 7 11 1021.2 1021.5 0.0
16/03:00pm 12.2 9.6 7.9 75 2.2 WNW 11 17 6 9 1020.8 1021.2 0.0
16/02:30pm 12.5 9.5 7.8 73 2.4 NW 13 20 7 11 1020.7 1021.1 0.0
16/02:00pm 12.4 9.2 8.3 76 2.1 W 15 20 8 11 1020.7 1021.1 0.0
16/01:30pm 12.1 8.7 7.8 75 2.2 W 15 22 8 12 1020.7 1021.1 0.0
16/01:00pm 12.1 8.7 7.8 75 2.2 W 15 22 8 12 1020.9 1021.3 0.0
16/12:30pm 11.8 8.0 7.5 75 2.1 W 17 22 9 12 1021.0 1021.4 0.0
16/12:00pm 11.3 7.5 7.6 78 1.8 WNW 17 24 9 13 1021.3 1021.6 0.0
16/11:30am 10.9 7.2 7.8 81 1.5 W 17 22 9 12 1021.6 1021.9 0.0
16/11:00am 11.0 8.0 7.7 80 1.6 WNW 13 20 7 11 1021.8 1022.1 0.0
16/10:30am 10.6 7.2 7.7 82 1.4 WNW 15 20 8 11 1021.9 1022.2 0.0
16/10:00am 10.1 6.1 6.6 79 1.7 WNW 17 22 9 12 1021.9 1022.2 0.0
16/09:30am 10.0 5.9 6.2 77 1.8 WNW 17 24 9 13 1021.7 1022.0 0.0
16/09:00am 10.3 6.9 5.9 74 2.1 NW 13 19 7 10 1021.4 1021.7 0.2
16/08:30am 10.3 6.9 5.9 74 2.1 N 13 17 7 9 1020.8 1021.2 0.2
16/08:00am 9.9 6.1 5.9 76 1.9 N 15 19 8 10 1020.6 1021.0 0.2
16/07:30am 9.2 5.8 5.8 79 1.6 N 13 19 7 10 1020.3 1020.6 0.2
16/07:00am 9.0 5.9 5.7 80 1.5 N 11 15 6 8 1020.1 1020.4 0.2
16/06:30am 9.0 5.6 6.1 82 1.4 N 13 15 7 8 1020.0 1020.3 0.2
16/06:00am 8.8 5.4 6.1 83 1.3 N 13 17 7 9 1019.7 1020.0 0.2
16/05:30am 8.8 5.4 6.1 83 1.3 N 13 17 7 9 1019.4 1019.7 0.2
16/05:00am 8.9 5.2 6.2 83 1.3 N 15 19 8 10 1019.3 1019.6 0.2
16/04:30am 8.8 5.0 5.9 82 1.4 N 15 19 8 10 1019.2 1019.5 0.2
16/04:00am 9.1 5.3 5.8 80 1.6 NNW 15 19 8 10 1019.3 1019.6 0.2
16/03:30am 9.1 4.9 5.8 80 1.5 NNW 17 22 9 12 1019.4 1019.7 0.2
16/03:00am 9.1 5.3 6.0 81 1.5 NNW 15 19 8 10 1019.5 1019.8 0.2
16/02:30am 8.8 5.4 6.1 83 1.3 N 13 17 7 9 1019.5 1019.8 0.2
16/02:00am 9.1 5.3 6.0 81 1.5 NNW 15 20 8 11 1019.5 1019.8 0.2
16/01:30am 9.1 5.0 6.0 81 1.5 NNW 17 20 9 11 1019.6 1019.9 0.2
16/01:00am 9.2 5.4 5.9 80 1.6 N 15 20 8 11 1019.5 1019.8 0.2
16/12:30am 9.2 5.4 5.9 80 1.6 N 15 19 8 10 1019.7 1020.0 0.2
16/12:00am 9.4 5.2 5.9 79 1.6 N 17 22 9 12 1019.7 1020.0 0.2
 
Date/Time
CST
Temp
°C
App
Temp
°C
Dew
Point
°C
Rel
Hum
%
Delta-T
°C
Wind Press
QNH
hPa
Press
MSL
hPa
Rain since
9am
mm
Dir  Spd
km/h
Gust
km/h
Spd
kts
Gust
kts
15/11:30pm 9.4 5.3 6.1 80 1.6 N 17 22 9 12 1019.8 1020.1 0.2
15/11:00pm 9.4 5.7 6.1 80 1.6 N 15 19 8 10 1019.9 1020.2 0.2
15/10:30pm 9.5 5.8 6.2 80 1.6 N 15 19 8 10 1020.1 1020.4 0.2
15/10:00pm 9.5 5.5 6.6 82 1.4 N 17 20 9 11 1020.2 1020.5 0.2
15/09:30pm 9.4 5.8 6.8 84 1.3 N 15 22 8 12 1020.2 1020.5 0.2
15/09:00pm 9.2 6.0 7.0 86 1.1 N 13 17 7 9 1020.2 1020.5 0.2
15/08:30pm 9.6 6.2 7.5 87 1.0 N 15 19 8 10 1020.2 1020.5 0.2
15/08:00pm 9.5 6.5 7.8 89 0.8 N 13 17 7 9 1020.4 1020.7 0.2
15/07:30pm 9.7 6.2 7.3 85 1.2 NNW 15 20 8 11 1020.3 1020.6 0.2
15/07:00pm 9.7 6.7 7.8 88 0.9 NNW 13 19 7 10 1020.2 1020.5 0.2
15/06:30pm 9.9 6.8 8.8 93 0.6 NW 15 20 8 11 1020.1 1020.4 0.2
15/06:00pm 9.9 6.9 9.1 95 0.4 NW 15 19 8 10 1020.1 1020.4 0.2
15/05:30pm 10.0 7.4 9.2 95 0.4 NW 13 17 7 9 1020.0 1020.3 0.2
15/05:00pm 10.0 7.0 9.2 95 0.4 NW 15 19 8 10 1019.8 1020.1 0.2
15/04:30pm 10.8 6.8 9.1 89 0.9 NW 20 28 11 15 1019.7 1020.0 0.2
15/04:00pm 10.8 8.1 10.3 97 0.3 NW 15 22 8 12 1019.6 1019.9 0.2
15/03:30pm 10.9 7.8 10.4 97 0.3 NW 17 24 9 13 1019.7 1020.0 0.0
15/03:00pm 11.4 9.4 11.4 100 0.0 NW 13 19 7 10 1019.7 1020.0 0.0
15/02:30pm 10.8 7.8 10.8 100 0.0 WNW 17 22 9 12 1019.8 1020.1 0.0
15/02:00pm 11.0 8.1 11.0 100 0.0 WNW 17 26 9 14 1019.9 1020.2 0.0
15/01:30pm 10.0 7.2 10.0 100 0.0 NW 15 22 8 12 1020.2 1020.5 0.0
15/01:00pm 9.6 6.7 9.6 100 0.0 NW 15 24 8 13 1020.4 1020.7 0.0
15/12:30pm 9.4 6.4 9.4 100 0.0 NW 15 22 8 12 1020.6 1021.0 0.0
15/12:00pm 9.2 6.2 9.2 100 0.0 WNW 15 20 8 11 1020.9 1021.3 0.0
15/11:30am 9.1 5.7 9.1 100 0.0 WNW 17 28 9 15 1021.3 1021.6 0.0
15/11:00am 9.2 5.8 9.2 100 0.0 NW 17 24 9 13 1021.6 1021.9 0.0
15/10:30am 9.2 5.8 9.2 100 0.0 NW 17 26 9 14 1021.8 1022.1 0.0

Latest Capital City Observations: Canberra | Sydney | Melbourne | Brisbane | Adelaide | Perth | Hobart | Darwin

Other formats

Comma delimited format used in spreadsheet applications
http://www.bom.gov.au/fwo/IDS60901/IDS60901.94678.axf

JavaScript Object Notation format (JSON) in row-major order
http://www.bom.gov.au/fwo/IDS60901/IDS60901.94678.json

Data quality

Most of these data are generated automatically and are frequently updated. Quality checks on data are not normally performed. It is possible for incorrect values to appear. Refer to information at About Latest Weather Observations and please check the disclaimer before using these data.